Time;durP1;ratioP1;P1;durP2;ratioP2;P2;SDS_P1;SDS_P2;PMS_P1;PMS_P2;Temp;Humidity;BMP_temperature;BMP_pressure;BME280_temperature;BME280_humidity;BME280_pressure;Samples;Min_cycle;Max_cycle;Signal;HPM_P1;HPM_P2
2023/03/03 00:01:54;;;;;;;13.97;8.10;;;8.40;73.80;;;;;;6276317;22;20110;-65
2023/03/03 00:04:19;;;;;;;12.47;7.83;;;8.50;73.40;;;;;;6276030;22;20000;-67
2023/03/03 00:06:45;;;;;;;14.57;7.27;;;8.40;73.40;;;;;;6276181;22;20074;-65
2023/03/03 00:09:11;;;;;;;11.00;7.53;;;8.40;73.50;;;;;;6275957;22;20046;-65
2023/03/03 00:11:36;;;;;;;13.20;7.70;;;8.40;73.50;;;;;;6276001;22;20016;-65
2023/03/03 00:14:02;;;;;;;14.17;8.13;;;8.40;73.70;;;;;;6275958;22;20304;-65
2023/03/03 00:16:34;;;;;;;11.77;7.50;;;8.40;73.60;;;;;;6275949;22;20003;-65
2023/03/03 00:19:00;;;;;;;16.63;8.07;;;8.40;73.80;;;;;;6275631;22;20330;-65
2023/03/03 00:21:39;;;;;;;15.70;8.27;;;8.40;73.90;;;;;;6275957;22;20006;-65
2023/03/03 00:24:20;;;;;;;13.80;8.53;;;8.30;73.80;;;;;;6275854;22;20500;-65
2023/03/03 00:26:49;;;;;;;14.40;8.73;;;8.30;73.80;;;;;;6276082;22;20317;-65
2023/03/03 00:29:29;;;;;;;12.97;8.43;;;8.30;74.00;;;;;;6276083;22;20052;-65
2023/03/03 00:32:11;;;;;;;12.17;8.30;;;8.30;74.10;;;;;;6275911;22;20498;-65
2023/03/03 00:34:37;;;;;;;16.33;8.50;;;8.30;74.20;;;;;;6276014;22;19999;-65
2023/03/03 00:37:18;;;;;;;16.00;8.97;;;8.20;74.30;;;;;;6275906;22;20061;-66
2023/03/03 00:39:44;;;;;;;13.07;7.87;;;8.30;75.00;;;;;;6275947;22;20038;-65
2023/03/03 00:42:16;;;;;;;14.87;8.00;;;8.20;74.30;;;;;;6276176;22;19996;-65
2023/03/03 00:44:44;;;;;;;13.23;7.73;;;8.20;74.40;;;;;;6276264;22;20429;-64
2023/03/03 00:47:26;;;;;;;10.50;6.90;;;8.20;74.50;;;;;;6276031;22;20410;-65
2023/03/03 00:50:25;;;;;;;19.05;8.50;;;8.20;74.70;;;;;;6275974;22;20007;-65
2023/03/03 00:53:12;;;;;;;13.70;8.13;;;8.10;74.70;;;;;;6275864;22;19998;-66
2023/03/03 00:55:39;;;;;;;13.57;7.97;;;8.20;74.90;;;;;;6275929;22;19995;-65
2023/03/03 00:58:05;;;;;;;17.93;8.40;;;8.20;75.00;;;;;;6275984;22;20011;-64
2023/03/03 01:00:31;;;;;;;15.90;7.93;;;8.10;74.90;;;;;;6276045;22;20000;-63
2023/03/03 01:03:01;;;;;;;12.97;7.93;;;8.10;75.00;;;;;;6276013;22;20085;-65
2023/03/03 01:05:26;;;;;;;13.27;8.13;;;8.10;75.10;;;;;;6276037;22;20011;-64
2023/03/03 01:07:52;;;;;;;11.93;7.23;;;8.10;75.20;;;;;;6275704;22;20419;-65
2023/03/03 01:10:18;;;;;;;13.07;8.33;;;8.10;75.30;;;;;;6275655;22;20417;-65
2023/03/03 01:12:43;;;;;;;11.90;7.53;;;8.10;75.30;;;;;;6275793;22;20321;-64
2023/03/03 01:15:11;;;;;;;11.20;7.90;;;8.10;75.40;;;;;;6275700;22;19999;-65
2023/03/03 01:17:38;;;;;;;14.07;8.67;;;8.10;75.50;;;;;;6276144;22;19999;-64
2023/03/03 01:20:06;;;;;;;15.77;8.77;;;8.00;75.50;;;;;;6276131;22;20008;-64
2023/03/03 01:22:32;;;;;;;12.50;8.10;;;8.00;75.50;;;;;;6275872;22;20426;-65
2023/03/03 01:24:58;;;;;;;15.63;9.40;;;8.00;75.70;;;;;;6275777;22;20042;-65
2023/03/03 01:27:23;;;;;;;12.63;8.43;;;8.00;75.80;;;;;;6275890;22;19996;-64
2023/03/03 01:29:49;;;;;;;14.93;8.70;;;8.00;75.80;;;;;;6275910;22;20010;-64
2023/03/03 01:32:15;;;;;;;15.57;8.90;;;8.00;75.90;;;;;;6275464;22;20323;-65
2023/03/03 01:34:40;;;;;;;18.53;8.87;;;8.00;75.80;;;;;;6275901;22;20004;-64
2023/03/03 01:37:06;;;;;;;15.87;8.03;;;8.00;75.70;;;;;;6275745;22;20027;-64
2023/03/03 01:39:32;;;;;;;16.17;8.70;;;8.00;75.70;;;;;;6275723;22;20071;-64
2023/03/03 01:41:57;;;;;;;11.80;8.07;;;8.00;76.00;;;;;;6275660;22;20307;-65
2023/03/03 01:44:23;;;;;;;14.03;8.20;;;8.00;76.00;;;;;;6276065;22;20034;-65
2023/03/03 01:47:10;;;;;;;15.10;8.03;;;7.90;76.20;;;;;;6275941;22;20004;-65
2023/03/03 01:49:43;;;;;;;12.30;8.30;;;7.90;76.00;;;;;;6275395;22;20011;-65
2023/03/03 01:52:20;;;;;;;13.32;7.95;;;7.90;76.20;;;;;;6275444;22;20058;-65
2023/03/03 01:54:53;;;;;;;14.80;8.10;;;7.90;76.30;;;;;;6276518;22;20007;-65
2023/03/03 01:57:26;;;;;;;12.80;7.80;;;7.90;76.50;;;;;;6277743;22;19999;-65
2023/03/03 01:59:54;;;;;;;15.90;8.63;;;7.90;76.40;;;;;;6273368;22;20419;-65
2023/03/03 02:02:20;;;;;;;12.10;7.40;;;7.90;76.40;;;;;;6273632;22;20007;-65
2023/03/03 02:04:46;;;;;;;17.50;9.73;;;7.90;76.60;;;;;;6275756;22;20004;-65
2023/03/03 02:07:13;;;;;;;15.00;7.80;;;7.90;76.70;;;;;;6277012;22;20003;-65
2023/03/03 02:10:01;;;;;;;13.70;8.30;;;7.90;76.70;;;;;;6277135;22;20007;-66
2023/03/03 02:12:35;;;;;;;13.43;8.37;;;7.90;76.70;;;;;;6277411;22;20004;-65
2023/03/03 02:15:00;;;;;;;13.33;7.60;;;7.90;76.80;;;;;;6277180;22;20010;-63
2023/03/03 02:17:26;;;;;;;15.97;7.47;;;7.90;76.80;;;;;;6275444;22;20003;-65
2023/03/03 02:20:33;;;;;;;12.93;8.00;;;7.90;77.10;;;;;;6277510;22;20036;-65
2023/03/03 02:23:06;;;;;;;16.60;8.40;;;7.90;77.30;;;;;;6246676;22;20031;-65
2023/03/03 02:25:41;;;;;;;15.63;7.90;;;7.90;77.30;;;;;;6277032;22;20026;-66
2023/03/03 02:28:06;;;;;;;11.60;7.63;;;7.90;77.30;;;;;;6276700;22;20077;-65
2023/03/03 02:30:37;;;;;;;13.57;7.63;;;7.90;77.40;;;;;;6276733;22;20474;-65
2023/03/03 02:33:03;;;;;;;13.07;8.00;;;7.90;77.50;;;;;;6276856;22;20007;-65
2023/03/03 02:35:39;;;;;;;17.50;8.33;;;7.90;78.00;;;;;;6277136;22;20334;-65
2023/03/03 02:38:26;;;;;;;13.23;8.10;;;7.90;78.70;;;;;;6276901;22;20086;-65
2023/03/03 02:41:04;;;;;;;13.50;8.63;;;7.80;78.00;;;;;;6277037;22;20049;-65
2023/03/03 02:43:55;;;;;;;10.57;8.00;;;7.80;77.90;;;;;;6276756;22;20038;-65
2023/03/03 02:46:21;;;;;;;13.60;7.60;;;7.80;77.90;;;;;;6269480;22;20426;-65
2023/03/03 02:48:46;;;;;;;17.90;8.07;;;7.80;77.80;;;;;;6275319;22;20099;-65
2023/03/03 02:51:12;;;;;;;13.20;7.87;;;7.80;77.80;;;;;;6276836;22;20090;-64
2023/03/03 02:53:37;;;;;;;15.40;8.30;;;7.70;77.90;;;;;;6276791;22;20039;-65
2023/03/03 02:56:03;;;;;;;10.87;7.73;;;7.70;78.20;;;;;;6276963;22;20319;-65
2023/03/03 02:58:29;;;;;;;15.50;8.57;;;7.70;78.30;;;;;;6276924;22;20022;-65
2023/03/03 03:00:56;;;;;;;15.37;8.80;;;7.70;78.50;;;;;;6276499;22;20438;-64
2023/03/03 03:03:22;;;;;;;15.90;8.53;;;7.70;78.30;;;;;;6277067;22;20003;-64
2023/03/03 03:05:47;;;;;;;14.17;8.93;;;7.70;78.40;;;;;;6274964;22;20303;-64
2023/03/03 03:08:14;;;;;;;18.97;8.70;;;7.70;78.50;;;;;;6276632;22;20049;-64
2023/03/03 03:10:39;;;;;;;16.30;8.77;;;7.70;78.40;;;;;;6276799;22;20334;-65
2023/03/03 03:13:05;;;;;;;14.70;8.43;;;7.60;78.60;;;;;;6274921;22;20030;-65
2023/03/03 03:15:30;;;;;;;12.83;7.63;;;7.70;78.70;;;;;;6276986;22;20431;-63
2023/03/03 03:17:56;;;;;;;18.13;9.30;;;7.60;78.60;;;;;;6276650;22;20029;-65
2023/03/03 03:20:22;;;;;;;12.23;8.20;;;7.60;78.60;;;;;;6276863;22;20423;-64
2023/03/03 03:22:47;;;;;;;14.03;7.80;;;7.60;78.80;;;;;;6276950;22;20007;-64
2023/03/03 03:25:13;;;;;;;20.37;8.83;;;7.60;79.80;;;;;;6276774;22;20030;-65
2023/03/03 03:27:39;;;;;;;16.80;8.80;;;7.60;79.10;;;;;;6276620;22;20126;-64
2023/03/03 03:30:05;;;;;;;13.73;8.63;;;7.60;79.20;;;;;;6276621;22;20007;-64
2023/03/03 03:32:30;;;;;;;16.77;9.90;;;7.60;79.10;;;;;;6276469;22;19999;-64
2023/03/03 03:34:56;;;;;;;13.47;8.40;;;7.50;79.30;;;;;;6276604;22;20304;-64
2023/03/03 03:37:22;;;;;;;19.07;9.20;;;7.50;79.50;;;;;;6276640;22;20465;-64
2023/03/03 03:39:47;;;;;;;17.07;9.60;;;7.50;79.40;;;;;;6276335;22;20437;-64
2023/03/03 03:42:13;;;;;;;17.47;9.83;;;7.50;79.30;;;;;;6276790;22;20075;-65
2023/03/03 03:44:39;;;;;;;11.50;8.17;;;7.50;80.10;;;;;;6276285;22;20012;-65
2023/03/03 03:47:05;;;;;;;18.10;10.90;;;7.50;79.50;;;;;;6276031;22;20042;-64
2023/03/03 03:49:30;;;;;;;16.80;8.87;;;7.50;79.50;;;;;;6276810;22;20022;-64
2023/03/03 03:51:56;;;;;;;17.53;9.30;;;7.50;79.50;;;;;;6276147;22;20008;-65
2023/03/03 03:54:22;;;;;;;13.20;9.13;;;7.50;79.60;;;;;;6276413;22;20419;-64
2023/03/03 03:56:47;;;;;;;15.40;8.70;;;7.50;79.70;;;;;;6276513;22;20006;-65
2023/03/03 03:59:13;;;;;;;17.03;10.10;;;7.40;79.70;;;;;;6276189;22;20000;-65
2023/03/03 04:01:38;;;;;;;18.03;9.47;;;7.40;79.80;;;;;;6276215;22;20378;-65
2023/03/03 04:04:04;;;;;;;13.27;8.90;;;7.40;79.90;;;;;;6275949;22;20015;-65
2023/03/03 04:06:30;;;;;;;13.30;8.73;;;7.40;80.10;;;;;;6276131;22;20000;-65
2023/03/03 04:08:56;;;;;;;15.83;9.40;;;7.40;80.40;;;;;;6275966;22;20007;-64
2023/03/03 04:11:22;;;;;;;17.67;9.83;;;7.40;80.20;;;;;;6276420;22;20438;-64
2023/03/03 04:13:48;;;;;;;15.67;8.80;;;7.40;80.50;;;;;;6276321;22;19996;-65
2023/03/03 04:16:13;;;;;;;17.63;9.60;;;7.40;80.60;;;;;;6276421;22;19996;-64
2023/03/03 04:18:41;;;;;;;16.30;9.47;;;7.40;80.40;;;;;;6276066;22;20016;-64
2023/03/03 04:21:13;;;;;;;24.07;11.37;;;7.40;80.40;;;;;;6276101;22;20004;-63
2023/03/03 04:23:39;;;;;;;36.50;11.48;;;7.30;80.40;;;;;;6275941;22;20003;-65
2023/03/03 04:26:05;;;;;;;45.30;10.50;;;7.30;80.40;;;;;;6276395;22;20011;-65
2023/03/03 04:28:31;;;;;;;31.77;11.50;;;7.30;80.30;;;;;;6275905;22;20000;-65
2023/03/03 04:30:56;;;;;;;26.67;9.97;;;7.30;81.10;;;;;;6275874;22;20007;-67
2023/03/03 04:33:22;;;;;;;33.40;10.33;;;7.30;80.60;;;;;;6276098;22;20007;-67
2023/03/03 04:35:48;;;;;;;20.73;9.93;;;7.30;80.70;;;;;;6276354;22;20013;-64
2023/03/03 04:38:14;;;;;;;18.17;9.30;;;7.30;80.70;;;;;;6276140;22;20042;-65
2023/03/03 04:40:41;;;;;;;21.23;9.07;;;7.30;81.00;;;;;;6276102;22;20334;-68
2023/03/03 04:43:07;;;;;;;13.60;8.57;;;7.30;81.00;;;;;;6274540;22;20000;-66
2023/03/03 04:45:32;;;;;;;15.37;8.53;;;7.30;81.20;;;;;;6276238;22;20118;-65
2023/03/03 04:47:58;;;;;;;14.37;8.37;;;7.30;81.20;;;;;;6276029;22;20011;-65
2023/03/03 04:50:24;;;;;;;19.20;9.13;;;7.30;81.30;;;;;;6275750;22;20061;-66
2023/03/03 04:52:50;;;;;;;11.23;8.10;;;7.30;81.30;;;;;;6275614;22;20446;-67
2023/03/03 04:55:15;;;;;;;11.73;7.67;;;7.30;81.50;;;;;;6275887;22;20003;-67
2023/03/03 04:57:42;;;;;;;12.83;8.80;;;7.30;81.30;;;;;;6275943;22;20003;-67
2023/03/03 05:00:11;;;;;;;14.67;8.30;;;7.20;81.40;;;;;;6275951;22;20000;-67
2023/03/03 05:02:38;;;;;;;13.30;8.37;;;7.20;81.70;;;;;;6275817;22;20000;-66
2023/03/03 05:05:04;;;;;;;16.97;8.20;;;7.20;81.90;;;;;;6275942;22;20415;-66
2023/03/03 05:07:30;;;;;;;13.80;8.33;;;7.20;81.90;;;;;;6275670;22;20079;-64
2023/03/03 05:09:56;;;;;;;14.00;7.77;;;7.20;81.90;;;;;;6275485;22;20027;-66
2023/03/03 05:12:22;;;;;;;14.33;8.03;;;7.10;82.00;;;;;;6275815;22;20011;-67
2023/03/03 05:14:47;;;;;;;13.53;8.83;;;7.10;82.00;;;;;;6275982;22;20000;-67
2023/03/03 05:17:13;;;;;;;13.20;8.83;;;7.10;82.30;;;;;;6275847;22;20118;-66
2023/03/03 05:19:39;;;;;;;13.87;8.73;;;7.10;82.10;;;;;;6276016;22;20490;-64
2023/03/03 05:22:05;;;;;;;16.50;8.77;;;7.10;82.10;;;;;;6275959;22;20445;-64
2023/03/03 05:24:30;;;;;;;12.17;8.43;;;7.10;82.10;;;;;;6276093;22;20004;-65
2023/03/03 05:26:56;;;;;;;14.60;8.43;;;7.10;82.10;;;;;;6275727;22;20023;-65
2023/03/03 05:29:22;;;;;;;17.50;8.47;;;7.10;81.90;;;;;;6276171;22;20008;-65
2023/03/03 05:31:49;;;;;;;12.47;9.37;;;7.10;82.20;;;;;;6277518;22;20329;-65
2023/03/03 05:34:14;;;;;;;16.07;10.07;;;7.00;82.30;;;;;;6278377;22;20159;-66
2023/03/03 05:36:40;;;;;;;20.37;9.27;;;7.00;82.20;;;;;;6277780;22;20331;-66
2023/03/03 05:39:06;;;;;;;18.03;9.90;;;6.90;82.00;;;;;;6277672;22;20324;-65
2023/03/03 05:41:35;;;;;;;19.80;13.13;;;6.90;82.20;;;;;;6277568;22;20003;-63
2023/03/03 05:44:01;;;;;;;18.10;9.27;;;6.90;82.20;;;;;;6276159;22;20007;-66
2023/03/03 05:46:27;;;;;;;15.23;9.90;;;6.90;82.20;;;;;;6277670;22;19996;-67
2023/03/03 05:48:53;;;;;;;18.53;9.90;;;6.90;82.00;;;;;;6277632;22;20073;-64
2023/03/03 05:51:18;;;;;;;16.63;9.60;;;6.80;81.70;;;;;;6277694;22;20045;-67
2023/03/03 05:53:44;;;;;;;18.27;10.37;;;6.80;81.90;;;;;;6277543;22;19992;-65
2023/03/03 05:56:10;;;;;;;19.00;11.20;;;6.80;82.20;;;;;;6277770;22;20050;-65
2023/03/03 05:58:36;;;;;;;24.17;10.87;;;6.70;82.30;;;;;;6277461;22;20026;-64
2023/03/03 06:01:01;;;;;;;20.37;10.50;;;6.70;82.50;;;;;;6277375;22;20026;-65
2023/03/03 06:03:27;;;;;;;23.70;11.53;;;6.70;82.30;;;;;;6277221;22;20049;-65
2023/03/03 06:05:53;;;;;;;18.77;10.07;;;6.70;82.30;;;;;;6277512;22;20011;-65
2023/03/03 06:08:19;;;;;;;19.17;10.80;;;6.70;82.30;;;;;;6277124;22;20444;-65
2023/03/03 06:10:44;;;;;;;22.47;11.17;;;6.70;82.40;;;;;;6277326;22;20011;-65
2023/03/03 06:13:10;;;;;;;22.60;11.40;;;6.70;82.20;;;;;;6277438;22;20000;-64
2023/03/03 06:15:36;;;;;;;20.33;12.37;;;6.70;82.70;;;;;;6277494;22;20000;-65
2023/03/03 06:18:01;;;;;;;25.17;11.63;;;6.60;82.50;;;;;;6277398;22;20462;-66
2023/03/03 06:20:27;;;;;;;21.23;11.63;;;6.60;82.70;;;;;;6277114;22;20342;-64
2023/03/03 06:22:53;;;;;;;22.30;11.93;;;6.60;83.00;;;;;;6277410;22;19996;-65
2023/03/03 06:25:18;;;;;;;21.43;12.70;;;6.60;83.20;;;;;;6277281;22;20004;-65
2023/03/03 06:27:44;;;;;;;21.43;12.27;;;6.60;83.20;;;;;;6276850;22;20004;-65
2023/03/03 06:30:11;;;;;;;23.73;11.13;;;6.70;83.20;;;;;;6277170;22;20000;-64
2023/03/03 06:32:37;;;;;;;28.53;11.73;;;6.60;83.50;;;;;;6277344;22;20083;-65
2023/03/03 06:35:03;;;;;;;31.97;13.23;;;6.60;83.30;;;;;;6277463;22;20027;-66
2023/03/03 06:37:29;;;;;;;22.03;11.33;;;6.60;83.40;;;;;;6276921;22;20007;-65
2023/03/03 06:39:54;;;;;;;25.27;11.80;;;6.60;83.70;;;;;;6276734;22;20034;-66
2023/03/03 06:42:20;;;;;;;20.80;10.20;;;6.60;83.80;;;;;;6276955;22;19999;-64
2023/03/03 06:44:46;;;;;;;23.63;9.70;;;6.70;84.10;;;;;;6277079;22;20030;-65
2023/03/03 06:47:12;;;;;;;14.50;9.93;;;6.70;84.10;;;;;;6277762;22;20003;-65
2023/03/03 06:49:38;;;;;;;14.00;9.07;;;6.80;84.30;;;;;;6277052;22;20441;-65
2023/03/03 06:52:29;;;;;;;17.37;8.93;;;6.80;84.50;;;;;;6276816;22;20087;-65
2023/03/03 06:54:59;;;;;;;14.03;8.77;;;6.90;84.80;;;;;;6273724;22;20004;-64
2023/03/03 06:57:28;;;;;;;14.73;9.50;;;7.00;84.80;;;;;;6277022;22;20008;-65
2023/03/03 06:59:58;;;;;;;12.20;8.47;;;7.10;85.00;;;;;;6277016;22;19996;-66
2023/03/03 07:02:24;;;;;;;13.47;8.07;;;7.10;85.00;;;;;;6277053;22;20010;-64
2023/03/03 07:04:51;;;;;;;15.03;7.20;;;7.20;85.10;;;;;;6276780;22;20322;-65
2023/03/03 07:07:23;;;;;;;17.00;7.80;;;7.30;85.00;;;;;;6276876;22;20006;-65
2023/03/03 07:09:52;;;;;;;11.87;7.63;;;7.40;84.80;;;;;;6276500;22;20069;-65
2023/03/03 07:12:21;;;;;;;11.93;7.30;;;7.40;84.50;;;;;;6276374;22;20016;-71
2023/03/03 07:14:54;;;;;;;13.93;7.90;;;7.50;84.30;;;;;;6275595;22;20003;-70
2023/03/03 07:17:22;;;;;;;14.33;8.00;;;7.60;84.20;;;;;;6275412;22;20010;-70
2023/03/03 07:19:48;;;;;;;13.37;8.10;;;7.60;84.10;;;;;;6276936;22;20457;-71
2023/03/03 07:22:19;;;;;;;13.67;8.40;;;7.70;84.30;;;;;;6276958;22;20000;-70
2023/03/03 07:24:49;;;;;;;11.53;7.60;;;7.80;84.50;;;;;;6276806;22;20000;-70
2023/03/03 07:27:27;;;;;;;12.90;8.23;;;7.80;84.60;;;;;;6277147;22;20061;-71
2023/03/03 07:29:59;;;;;;;13.63;7.93;;;7.90;84.50;;;;;;6276622;22;20007;-71
2023/03/03 07:32:41;;;;;;;18.23;9.17;;;7.90;84.50;;;;;;6276474;22;20053;-71
2023/03/03 07:35:40;;;;;;;11.90;8.10;;;8.00;84.60;;;;;;6275160;22;20284;-71
2023/03/03 07:38:29;;;;;;;12.13;8.13;;;8.00;84.70;;;;;;6271410;22;20007;-69
2023/03/03 07:40:57;;;;;;;14.40;8.23;;;8.10;84.70;;;;;;6276208;22;20006;-70
2023/03/03 07:43:23;;;;;;;15.27;8.87;;;8.10;84.70;;;;;;6276699;22;19999;-70
2023/03/03 07:45:50;;;;;;;13.57;7.90;;;8.10;84.80;;;;;;6276844;22;19996;-70
2023/03/03 07:48:29;;;;;;;14.33;8.33;;;8.20;85.30;;;;;;6276710;22;20453;-71
2023/03/03 07:50:59;;;;;;;14.03;9.20;;;8.20;85.60;;;;;;6276614;22;20043;-71
2023/03/03 07:53:33;;;;;;;14.17;7.73;;;8.20;85.50;;;;;;6276377;22;20000;-72
2023/03/03 07:56:00;;;;;;;15.60;8.20;;;8.30;85.30;;;;;;6275932;22;20003;-70
2023/03/03 07:58:38;;;;;;;20.30;8.40;;;8.30;85.10;;;;;;6276533;22;19996;-71
2023/03/03 08:01:33;;;;;;;19.60;8.53;;;8.30;84.90;;;;;;6276662;22;20000;-71
2023/03/03 08:03:59;;;;;;;11.67;8.00;;;8.40;84.50;;;;;;6276596;22;20390;-71
2023/03/03 08:06:34;;;;;;;17.37;7.53;;;8.40;84.10;;;;;;6276775;22;20003;-71
2023/03/03 08:09:08;;;;;;;11.53;7.97;;;8.50;83.90;;;;;;6276631;22;20002;-70
2023/03/03 08:11:36;;;;;;;17.70;8.80;;;8.50;83.60;;;;;;6276537;22;20034;-70
2023/03/03 08:14:09;;;;;;;12.00;7.97;;;8.60;83.60;;;;;;6276609;22;20502;-69
2023/03/03 08:16:39;;;;;;;12.53;7.90;;;8.60;83.30;;;;;;6276564;22;19996;-70
2023/03/03 08:19:05;;;;;;;13.70;8.23;;;8.70;83.00;;;;;;6276543;22;20019;-71
2023/03/03 08:21:34;;;;;;;12.80;7.83;;;8.70;82.10;;;;;;6276808;22;19996;-70
2023/03/03 08:24:00;;;;;;;11.93;8.53;;;8.80;81.60;;;;;;6276097;22;20007;-71
2023/03/03 08:26:26;;;;;;;10.63;7.40;;;8.90;81.50;;;;;;6274836;22;20037;-71
2023/03/03 08:28:53;;;;;;;12.87;7.83;;;8.90;81.20;;;;;;6276542;22;20050;-71
2023/03/03 08:31:18;;;;;;;15.43;8.60;;;8.90;80.80;;;;;;6276240;22;20008;-71
2023/03/03 08:33:45;;;;;;;11.97;8.60;;;9.00;80.60;;;;;;6276494;22;20321;-70
2023/03/03 08:36:11;;;;;;;15.77;9.73;;;9.10;80.70;;;;;;6276200;22;19996;-70
2023/03/03 08:38:38;;;;;;;21.37;9.47;;;9.10;80.50;;;;;;6275898;22;20004;-72
2023/03/03 08:41:04;;;;;;;13.50;9.13;;;9.20;80.70;;;;;;6276089;22;20425;-69
2023/03/03 08:43:30;;;;;;;12.00;8.90;;;9.20;80.90;;;;;;6276322;22;20069;-70
2023/03/03 08:45:58;;;;;;;14.83;8.43;;;9.30;80.40;;;;;;6276162;22;20000;-70
2023/03/03 08:48:25;;;;;;;12.83;8.70;;;9.30;79.80;;;;;;6273478;22;20414;-70
2023/03/03 08:50:51;;;;;;;13.40;8.90;;;9.40;79.70;;;;;;6272293;22;20098;-70
2023/03/03 08:53:19;;;;;;;14.57;9.80;;;9.40;79.60;;;;;;6273745;22;20032;-70
2023/03/03 08:55:45;;;;;;;15.70;9.03;;;9.40;79.80;;;;;;6276147;22;20023;-70
2023/03/03 08:58:10;;;;;;;11.47;8.73;;;9.50;79.60;;;;;;6276095;22;20327;-69
2023/03/03 09:00:37;;;;;;;14.63;8.67;;;9.60;79.30;;;;;;6275880;22;19996;-69
2023/03/03 09:03:06;;;;;;;17.30;8.13;;;9.60;79.20;;;;;;6276218;22;20023;-70
2023/03/03 09:05:32;;;;;;;11.07;8.00;;;9.60;78.90;;;;;;6278125;22;20035;-71
2023/03/03 09:07:59;;;;;;;14.23;8.17;;;9.70;78.60;;;;;;6278317;22;20007;-71
2023/03/03 09:10:29;;;;;;;10.60;7.50;;;9.70;78.10;;;;;;6276919;22;20114;-70
2023/03/03 09:12:57;;;;;;;11.50;8.00;;;9.80;77.80;;;;;;6276838;22;20061;-70
2023/03/03 09:15:25;;;;;;;11.47;7.83;;;9.80;77.50;;;;;;6274895;22;20071;-71
2023/03/03 09:17:51;;;;;;;10.10;7.53;;;9.80;77.00;;;;;;6275155;22;20008;-71
2023/03/03 09:20:36;;;;;;;10.97;7.73;;;9.80;76.90;;;;;;6276667;22;19995;-68
2023/03/03 09:23:30;;;;;;;11.47;7.73;;;9.90;76.90;;;;;;6278335;22;20026;-71
2023/03/03 09:25:57;;;;;;;9.93;7.37;;;9.90;77.00;;;;;;6278393;22;20008;-71
2023/03/03 09:28:28;;;;;;;10.17;7.10;;;9.90;77.10;;;;;;6277558;22;19996;-71
2023/03/03 09:30:57;;;;;;;9.53;6.73;;;10.00;76.70;;;;;;6278008;22;20065;-71
2023/03/03 09:33:24;;;;;;;10.27;7.17;;;10.00;76.40;;;;;;6278066;22;20000;-71
2023/03/03 09:36:16;;;;;;;9.70;7.17;;;10.10;76.30;;;;;;6277904;22;20000;-70
2023/03/03 09:38:44;;;;;;;12.53;7.07;;;10.10;75.80;;;;;;6269147;22;20039;-70
2023/03/03 09:41:23;;;;;;;11.27;7.00;;;10.10;76.10;;;;;;6278025;22;20011;-71
2023/03/03 09:44:11;;;;;;;11.67;7.07;;;10.10;75.70;;;;;;6277776;22;19996;-71
2023/03/03 09:46:47;;;;;;;9.40;7.43;;;10.10;75.80;;;;;;6277813;22;20007;-70
2023/03/03 09:49:28;;;;;;;14.90;7.73;;;10.10;77.00;;;;;;6277284;22;20101;-70
2023/03/03 09:51:59;;;;;;;11.03;7.47;;;10.10;78.20;;;;;;6277506;22;20020;-70
2023/03/03 09:54:25;;;;;;;10.47;8.00;;;10.10;78.80;;;;;;6277922;22;20065;-69
2023/03/03 09:57:04;;;;;;;11.97;7.80;;;10.10;79.50;;;;;;6277786;22;19999;-71
2023/03/03 09:59:58;;;;;;;12.77;7.53;;;10.10;80.00;;;;;;6277323;22;20449;-70
2023/03/03 10:02:33;;;;;;;10.37;7.73;;;10.00;80.20;;;;;;6277314;22;19999;-70
2023/03/03 10:05:17;;;;;;;10.07;7.30;;;10.10;80.70;;;;;;6277698;22;20070;-70
2023/03/03 10:08:44;;;;;;;13.57;7.00;;;10.00;81.00;;;;;;6277792;22;19996;-70
2023/03/03 10:11:30;;;;;;;7.70;6.23;;;10.00;81.00;;;;;;6236113;22;20095;-71
2023/03/03 10:14:10;;;;;;;8.47;6.60;;;10.00;81.10;;;;;;6276130;22;20238;-72
2023/03/03 10:16:52;;;;;;;9.37;6.10;;;10.00;81.00;;;;;;6275862;22;20015;-69
2023/03/03 10:19:39;;;;;;;7.47;5.70;;;10.00;81.40;;;;;;6277745;22;20007;-70
2023/03/03 10:22:19;;;;;;;7.43;5.77;;;9.90;81.50;;;;;;6277071;22;20494;-69
2023/03/03 10:24:49;;;;;;;7.50;5.80;;;9.90;81.00;;;;;;6277498;22;20038;-70
2023/03/03 10:27:37;;;;;;;8.70;5.93;;;9.90;81.30;;;;;;6277450;22;20075;-70
2023/03/03 10:30:27;;;;;;;9.60;6.03;;;9.90;81.80;;;;;;6277163;22;19999;-69
2023/03/03 10:33:17;;;;;;;6.97;5.10;;;9.90;82.40;;;;;;6277422;22;20394;-70
2023/03/03 10:36:10;;;;;;;8.67;5.50;;;9.90;82.40;;;;;;6276047;22;19996;-71
2023/03/03 10:39:21;;;;;;;6.00;4.93;;;9.90;82.40;;;;;;6277600;22;20070;-71
2023/03/03 10:42:19;;;;;;;9.23;5.87;;;9.90;82.00;;;;;;6274190;22;20000;-73
2023/03/03 10:45:00;;;;;;;8.23;5.33;;;9.80;81.70;;;;;;6277431;22;20043;-70
2023/03/03 10:47:29;;;;;;;10.70;5.33;;;9.90;81.80;;;;;;6276738;22;20004;-69
2023/03/03 10:50:25;;;;;;;9.17;5.57;;;9.90;81.60;;;;;;6277320;22;20011;-70
2023/03/03 10:52:56;;;;;;;6.90;5.30;;;9.90;81.50;;;;;;6277201;22;20031;-70
2023/03/03 10:55:40;;;;;;;6.43;5.03;;;9.90;81.30;;;;;;6277184;22;19996;-69
2023/03/03 10:58:29;;;;;;;5.83;5.07;;;9.90;80.90;;;;;;6276781;22;20000;-73
2023/03/03 11:01:12;;;;;;;7.07;5.70;;;9.90;80.50;;;;;;6276905;22;20003;-71
2023/03/03 11:04:06;;;;;;;7.40;4.90;;;9.90;80.30;;;;;;6277038;22;20014;-71
2023/03/03 11:06:42;;;;;;;5.40;4.57;;;9.90;79.90;;;;;;6276707;22;20486;-70
2023/03/03 11:09:23;;;;;;;6.43;5.40;;;9.90;79.40;;;;;;6276755;22;19995;-73
2023/03/03 11:12:04;;;;;;;7.53;5.10;;;9.90;79.20;;;;;;6276623;22;20012;-70
2023/03/03 11:14:39;;;;;;;6.30;5.30;;;9.90;79.00;;;;;;6276123;22;20065;-70
2023/03/03 11:17:08;;;;;;;7.20;5.10;;;9.90;79.20;;;;;;6276764;22;20004;-71
2023/03/03 11:20:09;;;;;;;6.43;4.87;;;9.90;79.40;;;;;;6277152;22;20350;-72
2023/03/03 11:22:37;;;;;;;7.90;4.93;;;9.90;79.10;;;;;;6276577;22;20443;-71
2023/03/03 11:25:09;;;;;;;7.83;5.23;;;9.90;79.20;;;;;;6276732;22;20341;-72
2023/03/03 11:28:12;;;;;;;5.87;4.83;;;9.90;79.20;;;;;;6276452;22;20004;-71
2023/03/03 11:30:59;;;;;;;5.50;4.65;;;9.90;79.10;;;;;;6276769;22;20038;-70
2023/03/03 11:33:50;;;;;;;6.50;4.70;;;9.90;78.50;;;;;;6276826;22;20070;-72
2023/03/03 11:36:29;;;;;;;6.70;4.60;;;9.90;78.70;;;;;;6275088;22;20082;-70
2023/03/03 11:39:00;;;;;;;7.13;4.87;;;9.90;78.50;;;;;;6276618;22;20004;-72
2023/03/03 11:41:34;;;;;;;6.93;4.63;;;9.90;78.20;;;;;;6276847;22;20369;-72
2023/03/03 11:44:03;;;;;;;6.37;4.83;;;9.90;78.20;;;;;;6276841;22;20000;-71
2023/03/03 11:46:52;;;;;;;5.27;4.10;;;10.00;78.30;;;;;;6276534;22;20007;-72
2023/03/03 11:49:32;;;;;;;6.47;4.27;;;9.90;78.20;;;;;;6276147;22;20094;-74
2023/03/03 11:52:23;;;;;;;6.33;4.47;;;10.00;77.70;;;;;;6275947;22;20012;-73
2023/03/03 11:54:48;;;;;;;7.50;4.10;;;10.00;77.70;;;;;;6276423;22;20121;-69
2023/03/03 11:57:39;;;;;;;6.63;4.80;;;10.00;78.00;;;;;;6275867;22;20027;-73
2023/03/03 12:00:16;;;;;;;8.07;4.90;;;10.00;78.00;;;;;;6274469;22;20046;-72
2023/03/03 12:03:00;;;;;;;9.70;4.77;;;10.00;77.80;;;;;;6276113;22;19995;-74
2023/03/03 12:05:45;;;;;;;6.77;5.03;;;10.00;77.80;;;;;;6276489;22;20000;-70
2023/03/03 12:08:37;;;;;;;7.10;4.80;;;10.10;77.80;;;;;;6276163;22;20000;-73
2023/03/03 12:11:10;;;;;;;6.53;4.40;;;10.10;77.60;;;;;;6276443;22;20340;-72
2023/03/03 12:13:48;;;;;;;8.00;5.07;;;10.10;76.90;;;;;;6273858;22;20000;-75
2023/03/03 12:16:17;;;;;;;9.33;4.67;;;10.10;76.70;;;;;;6273029;22;20034;-73
2023/03/03 12:19:20;;;;;;;5.93;4.33;;;10.10;76.60;;;;;;6274863;22;20042;-73
2023/03/03 12:21:52;;;;;;;8.02;4.55;;;10.20;76.40;;;;;;6275915;22;20000;-70
2023/03/03 12:24:32;;;;;;;5.68;4.15;;;10.20;76.40;;;;;;6276109;22;20030;-73
2023/03/03 12:27:01;;;;;;;9.07;5.03;;;10.20;76.70;;;;;;6275641;22;20000;-69
2023/03/03 12:29:50;;;;;;;5.40;4.30;;;10.20;76.90;;;;;;6275774;22;19999;-71
2023/03/03 12:32:34;;;;;;;6.80;4.33;;;10.20;77.00;;;;;;6276400;22;20039;-70
2023/03/03 12:35:28;;;;;;;7.47;4.77;;;10.20;76.60;;;;;;6275776;22;20003;-70
2023/03/03 12:38:22;;;;;;;9.50;4.40;;;10.30;76.40;;;;;;6274016;22;20069;-72
2023/03/03 12:40:58;;;;;;;7.87;3.83;;;10.30;76.20;;;;;;6272441;22;20008;-73
2023/03/03 12:43:51;;;;;;;4.90;4.03;;;10.40;75.80;;;;;;6272154;22;20423;-72
2023/03/03 12:46:50;;;;;;;5.67;4.13;;;10.40;75.70;;;;;;6271685;22;20478;-71
2023/03/03 12:49:16;;;;;;;6.07;3.90;;;10.40;75.40;;;;;;6274087;22;20016;-69
2023/03/03 12:51:50;;;;;;;5.93;4.33;;;10.40;75.30;;;;;;6275976;22;20381;-70
2023/03/03 12:54:40;;;;;;;7.10;4.17;;;10.40;75.50;;;;;;6275591;22;19996;-70
2023/03/03 12:57:30;;;;;;;5.93;4.30;;;10.40;75.60;;;;;;6276083;22;20007;-71
2023/03/03 13:00:10;;;;;;;5.43;4.00;;;10.50;74.50;;;;;;6275814;22;19999;-71
2023/03/03 13:02:42;;;;;;;6.53;4.03;;;10.50;74.00;;;;;;6275482;22;20004;-73
2023/03/03 13:05:34;;;;;;;5.93;3.87;;;10.50;73.80;;;;;;6275826;22;19999;-69
2023/03/03 13:08:17;;;;;;;5.43;3.93;;;10.50;74.10;;;;;;6275175;22;20008;-72
2023/03/03 13:10:51;;;;;;;5.00;3.90;;;10.50;74.20;;;;;;6275771;22;20015;-74
2023/03/03 13:13:34;;;;;;;6.03;4.27;;;10.50;74.60;;;;;;6275529;22;19995;-71